EDVK/KSF METAR and TAF weather

Enter ICAO airport designator
Station Type Date Time Source
EDVK METAR 2018/10/22 16:20 UTC NOAA

EDVK 221620Z 35009KT 9999 FEW022 BKN048 10/05 Q1031


Station Type Date Time Source
EDVK Decoded METAR 2018/10/22 16:20 UTC NOAA

Kassel / Calden, Germany (EDVK) 51-24N 009-23E 283M
Oct 22, 2018 - 12:20 PM EDT / 2018.10.22 1620 UTC
Wind: from the N (350 degrees) at 10 MPH (9 KT):0
Visibility: greater than 7 mile(s):0
Sky conditions: mostly cloudy
Temperature: 50 F (10 C)
Dew Point: 41 F (5 C)
Relative Humidity: 71%
Pressure (altimeter): 30.45 in. Hg (1031 hPa)
ob: EDVK 221620Z 35009KT 9999 FEW022 BKN048 10/05 Q1031
cycle: 16

Station Type Date Time Source
EDVK TAF 2011/03/23 07:09 UTC NOAA

TAF COR EDVK 230655Z 2307/2321 30002KT 3500 BR SCT025 PROB30
TEMPO 2307/2309 1400 BCFG
BECMG 2307/2310 01007KT 8000


Example: see airport list